Time;durP1;ratioP1;P1;durP2;ratioP2;P2;SDS_P1;SDS_P2;PMS_P1;PMS_P2;Temp;Humidity;BMP_temperature;BMP_pressure;BME280_temperature;BME280_humidity;BME280_pressure;Samples;Min_cycle;Max_cycle;Signal;HPM_P1;HPM_P2
2022/04/25 00:01:53;;;;;;;19.38;15.73;;;;;;;8.91;79.11;99464.91;4940747;28;20408;-76
2022/04/25 00:04:20;;;;;;;19.67;15.80;;;;;;;8.92;79.01;99471.03;4945238;28;20094;-76
2022/04/25 00:06:46;;;;;;;19.00;16.67;;;;;;;8.87;78.98;99471.28;4953098;28;20058;-77
2022/04/25 00:09:13;;;;;;;19.05;15.88;;;;;;;8.90;79.06;99464.97;4941864;28;20426;-76
2022/04/25 00:11:40;;;;;;;20.30;15.68;;;;;;;8.87;78.76;99462.50;4943310;28;20059;-77
2022/04/25 00:14:07;;;;;;;17.15;14.95;;;;;;;8.89;79.06;99468.56;4946661;28;20110;-76
2022/04/25 00:16:34;;;;;;;18.58;14.98;;;;;;;8.64;78.79;99429.47;4950765;28;20891;-76
2022/04/25 00:19:01;;;;;;;21.02;16.00;;;;;;;8.84;79.30;99460.03;4952762;28;20063;-75
2022/04/25 00:21:28;;;;;;;19.45;15.88;;;;;;;8.75;79.12;99435.84;4949316;28;20485;-77
2022/04/25 00:23:55;;;;;;;18.48;15.40;;;;;;;8.87;78.85;99454.56;4956863;28;20062;-77
2022/04/25 00:26:22;;;;;;;18.88;16.20;;;;;;;8.86;79.26;99453.72;4951050;28;20070;-77
2022/04/25 00:28:49;;;;;;;19.83;16.48;;;;;;;8.81;79.43;99439.09;4948029;28;20055;-77
2022/04/25 00:31:15;;;;;;;19.20;15.85;;;;;;;8.69;79.62;99428.25;4957372;28;20067;-77
2022/04/25 00:33:42;;;;;;;19.67;16.48;;;;;;;8.79;79.41;99442.66;4950148;28;20054;-77
2022/04/25 00:36:09;;;;;;;18.90;15.88;;;;;;;8.94;79.64;99466.53;4954466;28;20525;-77
2022/04/25 00:38:36;;;;;;;19.10;16.08;;;;;;;8.83;79.49;99453.88;4949030;28;20388;-76
2022/04/25 00:41:05;;;;;;;19.80;17.70;;;;;;;8.67;79.75;99432.75;4954109;28;20459;-76
2022/04/25 00:43:32;;;;;;;20.67;16.70;;;;;;;8.76;79.81;99460.47;4948369;28;20054;-75
2022/04/25 00:45:59;;;;;;;19.05;16.27;;;;;;;8.81;80.07;99462.84;4951011;28;20069;-76
2022/04/25 00:48:26;;;;;;;21.80;16.77;;;;;;;8.76;80.11;99453.38;4948793;28;20050;-75
2022/04/25 00:50:53;;;;;;;18.10;15.68;;;;;;;8.64;80.25;99432.09;4957122;28;20463;-76
2022/04/25 00:53:21;;;;;;;22.00;17.45;;;;;;;8.70;79.91;99444.94;4952170;28;20066;-77
2022/04/25 00:55:48;;;;;;;19.83;16.80;;;;;;;8.71;79.92;99446.66;4949914;28;20070;-77
2022/04/25 00:58:15;;;;;;;21.50;16.77;;;;;;;8.64;79.84;99437.38;4946728;28;20055;-76
2022/04/25 01:00:44;;;;;;;20.05;16.80;;;;;;;8.79;80.07;99461.16;4955822;28;20067;-76
2022/04/25 01:03:13;;;;;;;21.35;17.88;;;;;;;8.74;80.12;99455.25;4949426;28;20128;-75
2022/04/25 01:05:40;;;;;;;22.45;18.08;;;;;;;8.77;80.23;99465.66;4949221;28;20055;-75
2022/04/25 01:08:07;;;;;;;21.92;17.52;;;;;;;8.75;80.39;99450.81;4951239;28;20505;-76
2022/04/25 01:10:33;;;;;;;20.33;17.27;;;;;;;8.72;80.39;99451.84;4945933;28;20043;-76
2022/04/25 01:13:00;;;;;;;21.42;17.67;;;;;;;8.66;80.45;99435.47;4945512;28;20122;-76
2022/04/25 01:15:30;;;;;;;19.90;16.98;;;;;;;8.74;80.34;99446.47;4939515;28;20142;-76
2022/04/25 01:17:57;;;;;;;19.83;17.70;;;;;;;8.76;81.00;99458.66;4952475;28;20039;-76
2022/04/25 01:20:23;;;;;;;21.85;17.88;;;;;;;8.69;80.63;99441.44;4952006;28;20101;-76
2022/04/25 01:28:37;;;;;;;21.55;16.23;;;;;;;8.77;81.00;99460.38;4946786;28;20062;-76
2022/04/25 01:31:04;;;;;;;19.08;16.60;;;;;;;8.78;81.13;99459.44;4951343;28;20448;-76
2022/04/25 01:33:31;;;;;;;21.98;17.85;;;;;;;8.77;80.79;99447.19;4945834;28;20058;-75
2022/04/25 01:35:58;;;;;;;19.90;17.67;;;;;;;8.65;81.38;99439.94;4952955;28;20472;-74
2022/04/25 01:38:24;;;;;;;19.50;16.75;;;;;;;8.80;80.88;99459.34;4950144;28;20138;-75
2022/04/25 01:40:51;;;;;;;21.30;18.02;;;;;;;8.77;81.03;99455.09;4951277;28;20188;-75
2022/04/25 01:43:17;;;;;;;23.05;17.73;;;;;;;8.69;81.29;99453.78;4949543;28;20043;-75
2022/04/25 01:45:44;;;;;;;20.67;17.45;;;;;;;8.63;81.21;99460.28;4953797;28;20063;-77
2022/04/25 01:48:11;;;;;;;21.77;17.77;;;;;;;8.56;81.63;99450.09;4945430;28;20134;-76
2022/04/25 01:50:38;;;;;;;24.80;20.48;;;;;;;8.50;82.38;99455.75;4947377;28;20047;-76
2022/04/25 01:53:05;;;;;;;23.02;19.02;;;;;;;8.48;82.38;99463.72;4950009;28;20079;-76
2022/04/25 01:55:31;;;;;;;20.25;18.05;;;;;;;8.44;82.63;99468.31;4948999;28;20113;-76
2022/04/25 01:57:58;;;;;;;22.67;18.45;;;;;;;8.39;82.68;99472.97;4950122;28;20134;-75
2022/04/25 02:00:25;;;;;;;22.45;18.45;;;;;;;8.36;83.31;99470.47;4944184;28;20055;-75
2022/04/25 02:02:52;;;;;;;22.25;18.25;;;;;;;8.33;83.31;99467.19;4948511;28;20135;-76
2022/04/25 02:05:18;;;;;;;23.05;18.48;;;;;;;8.25;83.13;99450.84;4949488;28;20051;-76
2022/04/25 02:07:45;;;;;;;23.38;19.33;;;;;;;8.31;83.00;99461.94;4948282;28;20090;-77
2022/04/25 02:10:11;;;;;;;24.52;19.17;;;;;;;8.33;83.52;99467.19;4948081;28;20109;-76
2022/04/25 02:12:38;;;;;;;22.25;18.17;;;;;;;8.26;83.55;99458.69;4947773;28;20050;-77
2022/04/25 02:15:12;;;;;;;25.83;19.48;;;;;;;8.22;83.88;99458.91;4953676;28;20067;-76
2022/04/25 02:17:41;;;;;;;26.45;20.98;;;;;;;8.23;83.84;99456.22;4949942;28;20427;-77
2022/04/25 02:20:10;;;;;;;25.23;20.30;;;;;;;8.21;83.90;99447.53;4951859;28;20051;-76
2022/04/25 02:22:37;;;;;;;25.63;21.13;;;;;;;8.22;84.07;99445.72;4948191;28;20055;-76
2022/04/25 02:25:05;;;;;;;23.95;19.58;;;;;;;8.16;83.88;99446.06;4950933;28;20080;-77
2022/04/25 02:27:32;;;;;;;25.27;20.83;;;;;;;8.09;84.58;99434.97;4946404;28;20051;-76
2022/04/25 02:29:59;;;;;;;27.38;21.45;;;;;;;8.05;84.62;99434.28;4949162;28;20132;-77
2022/04/25 02:32:28;;;;;;;28.52;22.00;;;;;;;8.20;84.81;99468.69;4947033;28;20126;-76
2022/04/25 02:34:54;;;;;;;26.45;21.92;;;;;;;8.15;85.05;99454.91;4948745;28;20511;-76
2022/04/25 02:37:22;;;;;;;26.67;21.75;;;;;;;8.22;84.77;99469.47;4948248;28;20054;-76
2022/04/25 02:39:49;;;;;;;27.65;21.88;;;;;;;8.06;85.01;99451.81;4952692;28;20047;-76
2022/04/25 02:42:16;;;;;;;29.27;21.10;;;;;;;8.18;84.86;99483.78;4947422;28;20054;-77
2022/04/25 02:44:43;;;;;;;27.50;22.30;;;;;;;8.13;84.96;99481.34;4950408;28;20487;-76
2022/04/25 02:47:12;;;;;;;26.80;21.45;;;;;;;8.14;85.47;99490.13;4949050;28;20423;-76
2022/04/25 02:49:39;;;;;;;27.95;21.95;;;;;;;8.07;85.60;99490.44;4951739;28;20484;-77
2022/04/25 02:52:06;;;;;;;29.10;22.98;;;;;;;8.03;85.79;99499.41;4948733;28;20135;-76
2022/04/25 02:54:33;;;;;;;27.42;22.20;;;;;;;7.96;86.28;99487.50;4946790;28;20084;-75
2022/04/25 02:57:00;;;;;;;29.08;24.05;;;;;;;7.84;85.98;99472.31;4945824;28;20043;-77
2022/04/25 02:59:27;;;;;;;28.58;22.48;;;;;;;7.93;86.16;99498.19;4937475;28;20110;-76
2022/04/25 03:01:54;;;;;;;30.63;24.45;;;;;;;7.89;86.62;99507.16;4943524;28;20443;-76
2022/04/25 03:04:20;;;;;;;32.58;25.25;;;;;;;7.89;86.91;99509.81;4946642;28;21892;-77
2022/04/25 03:06:48;;;;;;;31.75;24.80;;;;;;;7.80;87.16;99504.16;4949573;28;20150;-77
2022/04/25 03:09:14;;;;;;;29.73;24.58;;;;;;;7.84;87.40;99517.09;4946325;28;20108;-77
2022/04/25 03:11:42;;;;;;;33.25;25.00;;;;;;;7.79;88.02;99503.31;4947605;28;20818;-77
2022/04/25 03:14:09;;;;;;;31.05;23.80;;;;;;;7.93;87.83;99523.69;4943030;28;20151;-77
2022/04/25 03:16:36;;;;;;;28.67;23.13;;;;;;;7.94;87.41;99523.63;4954138;28;20098;-76
2022/04/25 03:19:02;;;;;;;30.48;23.73;;;;;;;7.89;86.88;99508.94;4948348;28;20055;-77
2022/04/25 03:21:32;;;;;;;30.40;23.13;;;;;;;7.97;86.60;99522.63;4946322;28;20149;-76
2022/04/25 03:24:00;;;;;;;30.25;23.92;;;;;;;7.88;86.37;99521.28;4950902;28;20058;-76
2022/04/25 03:26:27;;;;;;;27.10;21.90;;;;;;;7.76;86.41;99508.72;4945745;28;20509;-76
2022/04/25 03:28:53;;;;;;;31.38;24.30;;;;;;;7.92;86.67;99530.75;4949949;28;20055;-75
2022/04/25 03:31:20;;;;;;;29.75;22.67;;;;;;;7.85;86.41;99531.16;4949681;28;20077;-76
2022/04/25 03:33:47;;;;;;;29.60;23.20;;;;;;;7.84;86.88;99535.56;4948860;28;20502;-75
2022/04/25 03:36:14;;;;;;;30.80;24.33;;;;;;;7.84;87.07;99538.19;4946969;28;20139;-75
2022/04/25 03:38:42;;;;;;;28.88;23.13;;;;;;;7.88;87.38;99538.88;4950314;28;20067;-75
2022/04/25 03:41:09;;;;;;;29.83;24.00;;;;;;;7.75;87.79;99509.63;4950360;28;20548;-76
2022/04/25 03:43:36;;;;;;;28.85;23.25;;;;;;;7.73;87.68;99495.69;4945859;28;20136;-75
2022/04/25 03:46:03;;;;;;;27.00;23.08;;;;;;;7.94;87.69;99514.84;4953971;28;20055;-78
2022/04/25 03:48:29;;;;;;;29.45;23.65;;;;;;;8.12;87.50;99531.53;4946518;28;20047;-75
2022/04/25 03:50:56;;;;;;;29.98;23.45;;;;;;;8.15;87.19;99534.03;4947231;28;20074;-76
2022/04/25 03:53:23;;;;;;;30.30;23.73;;;;;;;8.24;87.27;99544.94;4944332;28;20376;-76
2022/04/25 03:58:35;;;;;;;30.60;24.90;;;;;;;8.29;86.65;99537.66;4943657;28;20049;-75
2022/04/25 04:01:02;;;;;;;32.50;25.05;;;;;;;8.29;86.75;99542.09;4955942;28;20105;-75
2022/04/25 04:03:32;;;;;;;31.88;24.02;;;;;;;8.22;86.53;99520.44;4947001;28;20055;-76
2022/04/25 04:05:59;;;;;;;31.98;23.63;;;;;;;8.25;86.21;99527.34;4947871;28;20075;-75
2022/04/25 04:08:26;;;;;;;34.03;25.23;;;;;;;8.38;86.47;99545.13;4945670;28;20447;-75
2022/04/25 04:10:52;;;;;;;29.73;24.73;;;;;;;8.41;86.53;99544.13;4947119;28;20493;-74
2022/04/25 04:13:19;;;;;;;31.55;25.48;;;;;;;8.48;86.35;99544.66;4949818;28;20098;-75
2022/04/25 04:15:46;;;;;;;32.00;25.05;;;;;;;8.45;86.31;99540.41;4948020;28;20460;-75
2022/04/25 04:18:13;;;;;;;31.02;24.33;;;;;;;8.51;85.80;99547.13;4945544;28;20153;-75
2022/04/25 04:20:39;;;;;;;29.13;23.50;;;;;;;8.54;85.75;99550.47;4946586;28;20122;-75
2022/04/25 04:23:06;;;;;;;31.05;25.02;;;;;;;8.43;85.79;99536.97;4946174;28;20059;-77
2022/04/25 04:25:33;;;;;;;29.92;24.42;;;;;;;8.55;85.68;99548.69;4949373;28;20508;-76
2022/04/25 04:28:00;;;;;;;30.70;24.48;;;;;;;8.59;85.66;99559.00;4945793;28;20137;-75
2022/04/25 04:30:27;;;;;;;28.98;24.08;;;;;;;8.60;85.88;99559.84;4946008;28;20122;-76
2022/04/25 04:32:54;;;;;;;32.75;23.85;;;;;;;8.67;85.68;99564.72;4945250;28;20055;-76
2022/04/25 04:38:06;;;;;;;31.00;23.55;;;;;;;8.61;85.20;99558.94;4945723;28;20578;-76
2022/04/25 04:40:34;;;;;;;30.23;23.67;;;;;;;8.71;85.84;99561.00;4946085;28;20081;-76
2022/04/25 04:43:02;;;;;;;27.23;23.30;;;;;;;8.77;84.98;99570.38;4945893;28;20048;-76
2022/04/25 04:45:28;;;;;;;29.17;23.55;;;;;;;8.76;85.62;99561.63;4946593;28;20082;-75
2022/04/25 04:47:55;;;;;;;29.20;23.08;;;;;;;8.83;85.70;99561.28;4949097;28;20439;-77
2022/04/25 04:50:22;;;;;;;30.58;23.92;;;;;;;8.73;85.49;99548.56;4944737;28;20756;-77
2022/04/25 04:52:56;;;;;;;29.08;23.70;;;;;;;8.92;85.31;99574.00;4952373;28;20051;-75
2022/04/25 04:55:23;;;;;;;28.52;23.05;;;;;;;8.86;84.80;99555.84;4949248;28;20482;-75
2022/04/25 04:57:51;;;;;;;27.23;22.40;;;;;;;9.03;84.89;99583.03;4950042;28;20056;-76
2022/04/25 05:00:18;;;;;;;29.25;22.90;;;;;;;8.97;84.66;99564.88;4945008;28;20055;-75
2022/04/25 05:02:45;;;;;;;29.25;22.63;;;;;;;9.16;84.43;99593.81;4952949;28;20067;-76
2022/04/25 05:05:13;;;;;;;27.30;21.70;;;;;;;9.15;84.18;99586.81;4949737;28;20102;-75
2022/04/25 05:07:40;;;;;;;26.35;20.80;;;;;;;9.27;83.88;99598.53;4954612;28;20546;-77
2022/04/25 05:10:08;;;;;;;27.75;21.60;;;;;;;9.32;84.00;99594.69;4948808;28;20138;-76
2022/04/25 05:12:53;;;;;;;25.88;20.95;;;;;;;9.26;83.10;99573.91;4944596;28;20102;-75
2022/04/25 05:15:21;;;;;;;25.80;20.50;;;;;;;9.54;82.99;99604.09;4942239;28;20050;-76
2022/04/25 05:17:49;;;;;;;27.08;20.70;;;;;;;9.58;82.11;99605.63;4954095;28;20553;-76
2022/04/25 05:20:18;;;;;;;26.02;19.67;;;;;;;9.65;81.97;99607.81;4945172;28;20351;-78
2022/04/25 05:22:46;;;;;;;23.88;19.52;;;;;;;9.72;81.38;99618.94;4943841;28;20569;-75
2022/04/25 05:25:14;;;;;;;25.35;19.45;;;;;;;9.66;81.10;99613.97;4942414;28;20143;-75
2022/04/25 05:27:48;;;;;;;27.10;20.83;;;;;;;9.70;80.97;99631.38;4944090;28;20047;-76
2022/04/25 05:30:16;;;;;;;28.55;22.38;;;;;;;9.61;80.96;99632.72;4943236;28;20503;-77
2022/04/25 05:32:58;;;;;;;31.75;24.60;;;;;;;9.45;81.53;99639.78;4948749;28;20051;-76
2022/04/25 05:35:27;;;;;;;29.42;23.42;;;;;;;9.34;82.53;99632.44;4946683;28;20051;-77
2022/04/25 05:37:54;;;;;;;34.47;24.20;;;;;;;9.17;83.10;99621.06;4948552;28;20443;-76
2022/04/25 05:40:23;;;;;;;28.77;22.88;;;;;;;9.21;83.99;99633.19;4943137;28;20110;-76
2022/04/25 05:42:51;;;;;;;27.40;21.35;;;;;;;9.25;84.10;99632.94;4947660;28;20415;-77
2022/04/25 05:45:20;;;;;;;30.70;22.77;;;;;;;9.28;84.46;99635.44;4950113;28;20047;-76
2022/04/25 05:47:48;;;;;;;31.10;23.83;;;;;;;9.28;84.67;99637.22;4950403;28;20158;-76
2022/04/25 05:53:04;;;;;;;28.63;23.25;;;;;;;9.26;84.67;99637.31;4946284;28;20507;-77
2022/04/25 05:55:31;;;;;;;29.13;23.23;;;;;;;9.32;85.32;99636.94;4945614;28;20055;-77
2022/04/25 05:57:59;;;;;;;28.27;22.08;;;;;;;9.40;85.65;99639.19;4947949;28;20154;-76
2022/04/25 06:00:26;;;;;;;27.63;22.55;;;;;;;9.53;86.28;99632.31;4943001;28;20131;-77
2022/04/25 06:02:54;;;;;;;28.58;22.00;;;;;;;9.69;86.42;99630.53;4948259;28;20752;-76
2022/04/25 06:05:21;;;;;;;29.95;20.90;;;;;;;9.93;85.21;99638.84;4944691;28;20066;-75
2022/04/25 06:07:48;;;;;;;23.27;18.35;;;;;;;9.70;83.83;99583.78;4947743;28;20067;-76
2022/04/25 06:10:17;;;;;;;25.42;18.52;;;;;;;10.07;83.23;99628.34;4947311;28;20138;-78
2022/04/25 06:12:49;;;;;;;24.52;18.02;;;;;;;10.27;82.22;99647.56;4945978;28;20112;-76
2022/04/25 06:15:17;;;;;;;19.05;16.90;;;;;;;10.36;82.24;99652.34;4948906;28;20134;-75
2022/04/25 06:17:49;;;;;;;20.90;16.30;;;;;;;10.44;81.49;99644.78;4947781;28;20159;-78
2022/04/25 06:20:17;;;;;;;19.40;15.85;;;;;;;10.54;80.17;99652.13;4949324;28;20654;-76
2022/04/25 06:22:53;;;;;;;21.67;15.40;;;;;;;10.51;80.04;99623.19;4953307;28;20914;-76
2022/04/25 06:25:19;;;;;;;18.38;15.18;;;;;;;10.66;79.29;99645.25;4946604;28;20055;-77
2022/04/25 06:27:46;;;;;;;18.33;14.60;;;;;;;10.65;78.58;99653.28;4948735;28;20239;-76
2022/04/25 06:30:14;;;;;;;17.40;14.52;;;;;;;10.66;79.08;99647.91;4950855;28;20146;-75
2022/04/25 06:32:41;;;;;;;18.95;14.98;;;;;;;10.78;78.04;99659.56;4949420;28;20050;-76
2022/04/25 06:35:08;;;;;;;16.27;13.93;;;;;;;10.70;77.45;99652.06;4947354;28;20444;-76
2022/04/25 06:37:35;;;;;;;18.35;13.38;;;;;;;10.73;77.51;99656.31;4949740;28;20063;-76
2022/04/25 06:40:04;;;;;;;16.48;13.90;;;;;;;10.74;77.68;99637.69;4945382;28;20049;-75
2022/04/25 06:42:31;;;;;;;16.40;13.25;;;;;;;11.17;76.39;99661.63;4948218;28;20127;-78
2022/04/25 06:44:57;;;;;;;16.38;13.52;;;;;;;11.41;74.40;99627.44;4945976;28;20486;-76
2022/04/25 06:47:24;;;;;;;18.23;13.35;;;;;;;12.06;71.98;99630.38;4951639;28;20457;-78
2022/04/25 06:49:54;;;;;;;16.75;13.20;;;;;;;12.71;69.30;99662.31;4949001;28;20093;-76
2022/04/25 06:52:21;;;;;;;20.25;13.43;;;;;;;13.30;66.10;99666.22;4948149;28;20455;-77
2022/04/25 06:54:48;;;;;;;14.30;11.75;;;;;;;13.67;62.30;99657.38;4947909;28;20078;-78
2022/04/25 06:57:15;;;;;;;13.32;11.15;;;;;;;14.00;62.23;99653.25;4949427;28;20039;-77
2022/04/25 06:59:43;;;;;;;14.90;10.93;;;;;;;14.19;59.28;99668.69;4947348;28;20579;-77
2022/04/25 07:02:11;;;;;;;13.00;11.32;;;;;;;13.93;60.02;99671.44;4943970;28;20062;-77
2022/04/25 07:04:38;;;;;;;13.95;11.50;;;;;;;13.48;60.95;99650.78;4949951;28;20130;-75
2022/04/25 07:07:05;;;;;;;14.45;11.52;;;;;;;13.21;62.82;99678.38;4951143;28;20102;-76
2022/04/25 07:09:31;;;;;;;14.15;11.38;;;;;;;12.79;63.69;99652.00;4946064;28;20047;-76
2022/04/25 07:12:00;;;;;;;19.15;11.30;;;;;;;12.84;64.38;99682.66;4951058;28;20219;-76
2022/04/25 07:14:28;;;;;;;15.00;12.00;;;;;;;12.65;64.02;99669.75;4944938;28;20055;-79
2022/04/25 07:16:57;;;;;;;13.75;10.63;;;;;;;12.72;65.10;99691.44;4951148;28;20059;-76
2022/04/25 07:19:24;;;;;;;12.45;10.77;;;;;;;12.65;64.92;99698.97;4947679;28;20575;-75
2022/04/25 07:30:07;;;;;;;12.02;10.55;;;;;;;12.13;66.31;99698.84;4945670;28;20070;-76
2022/04/25 07:32:37;;;;;;;15.50;11.40;;;;;;;12.26;66.13;99706.91;4949841;28;20192;-75
2022/04/25 07:35:06;;;;;;;12.70;10.93;;;;;;;12.36;65.82;99696.53;4950714;28;20101;-75
2022/04/25 07:37:33;;;;;;;13.68;11.60;;;;;;;12.53;65.23;99705.09;4953221;28;20047;-76
2022/04/25 07:40:01;;;;;;;13.63;11.25;;;;;;;12.60;65.16;99703.72;4949159;28;20680;-75
2022/04/25 07:42:29;;;;;;;15.02;11.20;;;;;;;12.83;64.50;99702.19;4951201;28;20055;-75
2022/04/25 07:44:56;;;;;;;13.05;10.18;;;;;;;12.96;63.55;99687.13;4949323;28;20381;-76
2022/04/25 07:47:22;;;;;;;11.98;10.20;;;;;;;13.16;63.45;99687.59;4948158;28;20397;-76
2022/04/25 07:49:50;;;;;;;11.27;9.98;;;;;;;13.27;63.03;99685.91;4947808;28;20048;-76
2022/04/25 07:52:17;;;;;;;11.93;10.23;;;;;;;13.58;62.16;99710.34;4947920;28;20054;-76
2022/04/25 07:54:44;;;;;;;11.00;9.90;;;;;;;13.78;60.86;99714.28;4948970;28;20136;-76
2022/04/25 07:57:11;;;;;;;14.18;9.60;;;;;;;13.86;60.49;99714.56;4947940;28;20210;-76
2022/04/25 07:59:37;;;;;;;12.00;10.30;;;;;;;13.85;61.35;99711.06;4949700;28;20114;-76
2022/04/25 08:02:05;;;;;;;13.18;9.95;;;;;;;14.15;59.11;99713.34;4951307;28;20510;-75
2022/04/25 08:04:32;;;;;;;11.73;9.77;;;;;;;14.44;58.84;99705.06;4948355;28;20043;-75
2022/04/25 08:06:59;;;;;;;11.75;10.35;;;;;;;14.71;57.32;99719.00;4951053;28;20396;-76
2022/04/25 08:09:26;;;;;;;12.18;10.32;;;;;;;14.52;58.12;99722.19;4949792;28;20047;-78
2022/04/25 08:17:56;;;;;;;12.25;10.02;;;;;;;14.37;58.01;99713.47;4948171;28;20055;-77
2022/04/25 08:20:11;;;;;;;11.90;9.35;;;;;;;13.85;58.79;99734.19;4950117;28;20427;-76
2022/04/25 08:22:38;;;;;;;9.90;8.90;;;;;;;13.64;59.50;99731.22;4945688;28;20063;-80
2022/04/25 08:25:07;;;;;;;12.30;9.25;;;;;;;13.62;60.29;99741.97;4950879;28;20047;-75
2022/04/25 08:27:39;;;;;;;10.07;8.68;;;;;;;13.70;60.13;99744.94;4950182;28;20053;-75
2022/04/25 08:30:07;;;;;;;13.20;9.18;;;;;;;13.76;60.38;99740.16;4948180;28;20058;-78
2022/04/25 08:32:34;;;;;;;11.55;9.43;;;;;;;13.84;59.44;99738.66;4948660;28;20425;-77
2022/04/25 08:35:01;;;;;;;21.50;16.23;;;;;;;14.08;59.50;99745.84;4949571;28;20055;-76
2022/04/25 08:37:28;;;;;;;10.40;8.75;;;;;;;14.16;58.40;99736.38;4954173;28;20059;-75
2022/04/25 08:40:03;;;;;;;11.02;8.63;;;;;;;14.26;58.20;99741.88;4947653;28;20083;-77
2022/04/25 08:42:31;;;;;;;10.88;9.13;;;;;;;14.58;58.58;99752.88;4949308;28;20093;-75
2022/04/25 08:45:10;;;;;;;13.63;9.57;;;;;;;14.99;56.28;99739.97;4949189;28;20062;-75
2022/04/25 08:47:44;;;;;;;10.85;9.32;;;;;;;15.21;55.67;99733.00;4952037;28;20114;-76
2022/04/25 08:50:11;;;;;;;11.68;9.73;;;;;;;15.13;55.37;99743.38;4948012;28;20142;-76
2022/04/25 08:52:40;;;;;;;12.43;10.32;;;;;;;14.69;57.27;99739.59;4951839;28;20483;-75
2022/04/25 08:55:07;;;;;;;10.77;9.68;;;;;;;14.59;58.69;99735.91;4951566;28;20510;-75
2022/04/25 08:57:35;;;;;;;10.48;9.40;;;;;;;14.85;57.37;99742.81;4954538;28;20062;-75
2022/04/25 09:00:05;;;;;;;13.60;9.82;;;;;;;15.11;56.77;99742.69;4934088;28;20533;-75
2022/04/25 09:02:34;;;;;;;12.88;10.65;;;;;;;15.57;55.10;99730.19;4959220;28;20039;-76
2022/04/25 09:05:01;;;;;;;12.43;9.90;;;;;;;16.02;52.93;99743.56;4951968;28;20077;-77
2022/04/25 09:07:28;;;;;;;11.43;10.23;;;;;;;15.82;52.77;99733.59;4947593;28;20118;-76
2022/04/25 09:09:55;;;;;;;12.13;10.93;;;;;;;15.42;53.61;99742.84;4947024;28;20356;-76
2022/04/25 09:12:22;;;;;;;12.90;11.35;;;;;;;15.17;54.13;99753.72;4949692;28;20051;-76
2022/04/25 09:14:49;;;;;;;11.60;10.40;;;;;;;14.79;56.54;99758.44;4950340;28;20073;-76
2022/04/25 09:17:38;;;;;;;13.77;11.45;;;;;;;14.90;56.38;99755.81;4951360;28;20138;-77
2022/04/25 09:20:07;;;;;;;13.25;11.05;;;;;;;14.93;56.74;99750.25;4950946;28;20063;-75
2022/04/25 09:22:36;;;;;;;13.65;10.93;;;;;;;14.94;56.78;99754.63;4950207;28;20123;-75
2022/04/25 09:25:09;;;;;;;13.25;11.52;;;;;;;15.05;55.45;99759.97;4951366;28;20051;-76
2022/04/25 09:28:12;;;;;;;13.13;10.88;;;;;;;15.13;56.03;99757.56;4950327;28;20043;-76
2022/04/25 09:31:01;;;;;;;14.98;11.98;;;;;;;15.29;55.49;99754.59;4951769;28;20047;-76
2022/04/25 09:33:29;;;;;;;13.60;11.77;;;;;;;15.47;55.26;99761.19;4947202;28;20043;-76
2022/04/25 09:35:56;;;;;;;15.70;12.38;;;;;;;15.68;54.72;99734.69;4944434;28;20043;-76
2022/04/25 09:38:32;;;;;;;15.52;11.80;;;;;;;15.83;53.08;99725.47;4950635;28;20087;-76
2022/04/25 09:41:00;;;;;;;15.55;11.88;;;;;;;15.99;52.96;99733.97;4949836;28;20083;-76
2022/04/25 09:43:32;;;;;;;14.43;12.38;;;;;;;16.32;52.09;99759.78;4952563;28;20047;-75
2022/04/25 09:46:07;;;;;;;15.90;12.43;;;;;;;16.30;50.36;99734.16;4946291;28;22101;-76
2022/04/25 09:48:35;;;;;;;14.43;12.23;;;;;;;16.63;50.54;99754.66;4959857;28;20402;-74
2022/04/25 09:51:11;;;;;;;13.27;11.88;;;;;;;16.71;50.37;99755.72;4944571;28;20096;-76
2022/04/25 09:53:54;;;;;;;12.90;11.23;;;;;;;16.41;50.00;99753.69;4948614;28;20050;-75
2022/04/25 09:59:21;;;;;;;14.77;11.98;;;;;;;16.16;51.44;99750.47;4938366;28;20053;-78
2022/04/25 10:02:04;;;;;;;12.93;11.53;;;;;;;16.10;50.97;99762.47;4951980;28;20487;-77
2022/04/25 10:04:32;;;;;;;13.88;12.48;;;;;;;15.74;52.06;99751.06;4948090;28;20472;-79
2022/04/25 10:07:00;;;;;;;13.68;11.80;;;;;;;15.66;51.16;99755.31;4952822;28;20479;-80
2022/04/25 10:09:32;;;;;;;13.63;11.65;;;;;;;15.84;50.87;99759.22;4951744;28;20063;-76
2022/04/25 10:12:04;;;;;;;13.82;11.35;;;;;;;16.29;49.45;99762.72;4946669;28;20510;-78
2022/04/25 10:14:31;;;;;;;15.98;12.80;;;;;;;16.02;50.58;99768.44;4947086;28;20089;-78
2022/04/25 10:16:59;;;;;;;14.30;12.80;;;;;;;15.58;51.66;99745.25;4950261;28;20650;-79
2022/04/25 10:19:28;;;;;;;14.35;11.93;;;;;;;15.39;52.50;99763.59;4951601;28;20494;-76
2022/04/25 10:21:56;;;;;;;14.15;11.65;;;;;;;15.42;53.49;99760.72;4952280;28;20111;-77
2022/04/25 10:24:23;;;;;;;12.07;10.85;;;;;;;15.82;53.93;99768.31;4951506;28;20223;-77
2022/04/25 10:26:53;;;;;;;14.65;11.68;;;;;;;16.18;51.54;99753.88;4964107;28;20062;-78
2022/04/25 10:29:31;;;;;;;16.42;14.05;;;;;;;16.39;50.19;99734.25;4949845;28;20498;-78
2022/04/25 10:32:00;;;;;;;15.43;12.57;;;;;;;16.58;50.60;99760.34;4948223;28;20062;-77
2022/04/25 10:34:47;;;;;;;15.63;12.80;;;;;;;16.76;50.63;99758.88;4945478;28;20075;-78
2022/04/25 10:37:37;;;;;;;13.95;11.73;;;;;;;17.00;51.11;99763.97;4945831;28;20058;-79
2022/04/25 10:40:08;;;;;;;13.27;11.88;;;;;;;17.34;49.06;99753.13;4950667;28;20082;-78
2022/04/25 10:46:00;;;;;;;14.73;12.75;;;;;;;17.68;46.13;99754.63;4949329;28;20051;-78
2022/04/25 10:48:49;;;;;;;15.65;13.15;;;;;;;17.60;46.01;99756.25;4940380;28;20045;-77
2022/04/25 10:51:16;;;;;;;13.25;11.80;;;;;;;17.50;46.69;99750.81;4953554;28;20105;-78
2022/04/25 10:53:59;;;;;;;14.57;12.00;;;;;;;17.05;46.95;99718.97;4952320;28;20087;-77
2022/04/25 10:56:29;;;;;;;12.27;10.88;;;;;;;17.06;47.28;99750.09;4944420;28;20129;-80
2022/04/25 10:59:25;;;;;;;14.82;11.52;;;;;;;16.97;47.46;99753.56;4949242;28;20055;-78
2022/04/25 11:01:57;;;;;;;12.93;11.38;;;;;;;16.52;48.21;99738.63;4945395;28;20444;-79
2022/04/25 11:04:24;;;;;;;12.75;11.32;;;;;;;16.52;49.02;99760.00;4949532;28;20535;-78
2022/04/25 11:07:23;;;;;;;12.95;11.60;;;;;;;16.69;48.62;99763.00;4947302;28;20075;-77
2022/04/25 11:09:51;;;;;;;16.73;11.77;;;;;;;16.75;48.95;99746.47;4944925;28;20051;-76
2022/04/25 11:12:17;;;;;;;14.02;11.32;;;;;;;16.85;49.16;99757.25;4946332;28;20066;-77
2022/04/25 11:15:01;;;;;;;12.07;10.82;;;;;;;17.28;48.38;99759.84;4950803;28;20396;-77
2022/04/25 11:17:28;;;;;;;15.65;12.02;;;;;;;17.53;46.41;99755.94;4945511;28;20138;-76
2022/04/25 11:19:56;;;;;;;12.98;11.10;;;;;;;17.55;45.98;99748.63;4953431;28;20063;-74
2022/04/25 11:22:38;;;;;;;11.65;10.45;;;;;;;17.58;45.99;99753.72;4944388;28;20063;-77
2022/04/25 11:25:26;;;;;;;11.68;10.48;;;;;;;17.59;45.15;99741.19;4944307;28;20405;-77
2022/04/25 11:28:23;;;;;;;15.93;10.35;;;;;;;17.79;44.89;99756.38;4947273;28;20134;-78
2022/04/25 11:31:12;;;;;;;12.68;11.32;;;;;;;17.69;44.96;99750.97;4944539;28;20535;-77
2022/04/25 11:33:44;;;;;;;12.38;10.90;;;;;;;17.62;45.81;99751.63;4949208;28;20054;-77
2022/04/25 11:36:13;;;;;;;11.82;10.48;;;;;;;17.59;46.33;99759.91;4951245;28;21564;-78
2022/04/25 11:41:32;;;;;;;12.00;10.80;;;;;;;17.23;46.62;99763.88;4945061;28;20612;-77
2022/04/25 11:43:59;;;;;;;12.40;11.10;;;;;;;17.22;47.11;99759.50;4948092;28;20057;-79
2022/04/25 11:46:26;;;;;;;11.82;10.63;;;;;;;17.28;46.55;99767.88;4943902;28;20119;-75
2022/04/25 11:48:54;;;;;;;13.85;10.93;;;;;;;17.15;47.11;99754.69;4947440;28;20058;-77
2022/04/25 11:51:32;;;;;;;11.80;10.30;;;;;;;17.06;46.80;99763.47;4946063;28;20050;-78
2022/04/25 11:54:06;;;;;;;11.93;10.52;;;;;;;16.73;46.44;99748.41;4949888;28;20075;-78
2022/04/25 11:56:35;;;;;;;12.07;10.32;;;;;;;16.72;47.22;99768.09;4950140;28;20051;-79
2022/04/25 11:59:07;;;;;;;14.80;12.18;;;;;;;16.46;47.51;99743.50;4947921;28;20051;-78
2022/04/25 12:01:39;;;;;;;11.93;10.30;;;;;;;16.52;47.62;99763.53;4949106;28;20083;-77
2022/04/25 12:04:24;;;;;;;11.55;10.38;;;;;;;16.38;48.33;99774.47;4942137;28;20118;-77
2022/04/25 12:07:01;;;;;;;11.98;10.65;;;;;;;16.12;48.36;99755.19;4940021;28;20083;-77
2022/04/25 12:18:13;;;;;;;11.23;9.57;;;;;;;15.44;51.00;99726.72;4948413;28;20130;-78